Time;durP1;ratioP1;P1;durP2;ratioP2;P2;SDS_P1;SDS_P2;PMS_P1;PMS_P2;Temp;Humidity;BMP_temperature;BMP_pressure;BME280_temperature;BME280_humidity;BME280_pressure;Samples;Min_cycle;Max_cycle;Signal;HPM_P1;HPM_P2
2023/06/01 00:00:06;;;;;;;3.38;3.28;;;;;;;;;;5201874;22;20023;-83
2023/06/01 00:02:27;;;;;;;2.58;2.38;;;;;;;;;;5179056;22;20027;-84
2023/06/01 00:04:49;;;;;;;3.20;3.10;;;;;;;;;;5179050;22;20089;-84
2023/06/01 01:16:29;;;;;;;2.80;2.60;;;;;;;;;;5209993;22;20058;-83
2023/06/01 01:18:58;;;;;;;3.00;2.90;;;;;;;;;;5201449;22;20022;-83
2023/06/01 01:21:51;;;;;;;2.55;2.55;;;;;;;;;;5201380;22;20023;-83
2023/06/01 01:24:06;;;;;;;2.60;2.60;;;;;;;;;;5201390;22;20065;-84
2023/06/01 01:26:26;;;;;;;2.35;2.35;;;;;;;;;;5178702;22;20054;-83
2023/06/01 01:28:51;;;;;;;2.72;2.67;;;;;;;;;;5201508;22;20030;-83
2023/06/01 01:31:14;;;;;;;2.97;2.88;;;;;;;;;;5201303;22;20078;-83
2023/06/01 01:33:35;;;;;;;2.72;2.55;;;;;;;;;;5201372;22;20068;-83
2023/06/01 01:35:57;;;;;;;3.67;3.55;;;;;;;;;;5178726;22;20039;-83
2023/06/01 01:38:17;;;;;;;3.33;3.13;;;;;;;;;;5178630;22;20354;-84
2023/06/01 01:40:37;;;;;;;2.88;2.78;;;;;;;;;;5178483;22;20059;-83
2023/06/01 01:42:58;;;;;;;2.97;2.97;;;;;;;;;;5201379;22;20022;-83
2023/06/01 01:45:19;;;;;;;2.83;2.75;;;;;;;;;;5178685;22;20386;-83
2023/06/01 01:47:44;;;;;;;3.03;2.93;;;;;;;;;;5201435;22;20022;-83
2023/06/01 01:50:06;;;;;;;2.20;2.15;;;;;;;;;;5201083;22;20269;-83
2023/06/01 01:52:31;;;;;;;2.95;2.95;;;;;;;;;;5178658;22;20223;-83
2023/06/01 01:54:51;;;;;;;2.70;2.63;;;;;;;;;;5201344;22;20210;-83
2023/06/01 01:57:15;;;;;;;4.22;2.33;;;;;;;;;;5209793;22;20078;-83
2023/06/01 01:59:36;;;;;;;2.50;2.40;;;;;;;;;;5186987;22;20023;-83
2023/06/01 02:01:57;;;;;;;3.03;2.83;;;;;;;;;;5201336;22;20214;-83
2023/06/01 02:04:18;;;;;;;3.63;3.53;;;;;;;;;;5178573;22;20054;-83
2023/06/01 02:06:38;;;;;;;3.05;3.03;;;;;;;;;;5186175;22;20034;-83
2023/06/01 02:08:59;;;;;;;3.15;2.97;;;;;;;;;;5178609;22;20022;-83
2023/06/01 02:11:20;;;;;;;3.17;3.08;;;;;;;;;;5178628;22;20074;-83
2023/06/01 02:13:41;;;;;;;3.75;3.40;;;;;;;;;;5178449;22;20034;-83
2023/06/01 02:16:01;;;;;;;3.28;3.08;;;;;;;;;;5201284;22;20030;-83
2023/06/01 02:18:21;;;;;;;3.35;3.25;;;;;;;;;;5178487;22;20031;-83
2023/06/01 02:20:42;;;;;;;3.20;3.15;;;;;;;;;;5178368;22;20027;-83
2023/06/01 02:23:02;;;;;;;2.80;2.80;;;;;;;;;;5178443;22;20119;-83
2023/06/01 02:25:22;;;;;;;3.28;3.10;;;;;;;;;;5209659;22;20077;-83
2023/06/01 02:27:43;;;;;;;3.58;2.85;;;;;;;;;;5200948;22;20065;-83
2023/06/01 02:30:03;;;;;;;3.20;3.10;;;;;;;;;;5178227;22;20023;-83
2023/06/01 02:32:26;;;;;;;2.65;2.45;;;;;;;;;;5201164;22;20050;-83
2023/06/01 02:34:46;;;;;;;2.40;2.40;;;;;;;;;;5201157;22;20054;-83
2023/06/01 02:37:07;;;;;;;3.28;3.08;;;;;;;;;;5178327;22;20066;-83
2023/06/01 02:39:27;;;;;;;3.05;2.88;;;;;;;;;;5209570;22;20135;-83
2023/06/01 02:41:47;;;;;;;2.85;2.85;;;;;;;;;;5186932;22;20022;-83
2023/06/01 02:44:07;;;;;;;3.13;3.13;;;;;;;;;;5178265;22;20069;-83
2023/06/01 02:46:28;;;;;;;2.85;2.83;;;;;;;;;;5201012;22;20023;-83
2023/06/01 02:48:48;;;;;;;2.75;2.75;;;;;;;;;;5178364;22;20050;-83
2023/06/01 02:51:08;;;;;;;3.20;3.13;;;;;;;;;;5186637;22;20026;-83
2023/06/01 02:53:29;;;;;;;3.30;3.20;;;;;;;;;;5186746;22;20071;-83
2023/06/01 02:55:50;;;;;;;2.63;2.60;;;;;;;;;;5209470;22;20058;-83
2023/06/01 02:58:16;;;;;;;3.35;3.22;;;;;;;;;;5178150;22;20078;-83
2023/06/01 03:00:36;;;;;;;2.17;2.15;;;;;;;;;;5200856;22;20030;-83
2023/06/01 03:02:57;;;;;;;2.95;2.75;;;;;;;;;;5186727;22;20062;-83
2023/06/01 03:05:17;;;;;;;2.92;2.83;;;;;;;;;;5186749;22;20046;-83
2023/06/01 03:07:39;;;;;;;2.60;2.53;;;;;;;;;;5178076;22;20088;-83
2023/06/01 03:09:59;;;;;;;2.75;2.65;;;;;;;;;;5186695;22;20066;-83
2023/06/01 03:12:20;;;;;;;3.10;3.10;;;;;;;;;;5178257;22;20122;-83
2023/06/01 03:14:40;;;;;;;2.95;2.85;;;;;;;;;;5186532;22;20065;-83
2023/06/01 03:17:00;;;;;;;2.55;2.55;;;;;;;;;;5200768;22;20026;-83
2023/06/01 03:19:21;;;;;;;2.42;2.33;;;;;;;;;;5187527;22;20047;-83
2023/06/01 03:21:41;;;;;;;2.95;2.75;;;;;;;;;;5179058;22;20104;-83
2023/06/01 03:24:01;;;;;;;8.10;4.30;;;;;;;;;;5187487;22;20134;-83
2023/06/01 03:26:22;;;;;;;2.70;2.67;;;;;;;;;;5201900;22;20058;-83
2023/06/01 03:28:42;;;;;;;7.10;3.83;;;;;;;;;;5179164;22;20066;-83
2023/06/01 03:31:02;;;;;;;2.70;2.70;;;;;;;;;;5187483;22;20059;-83
2023/06/01 03:33:23;;;;;;;3.35;2.25;;;;;;;;;;5187797;22;20085;-83
2023/06/01 03:35:44;;;;;;;2.53;2.35;;;;;;;;;;5187655;22;20035;-83
2023/06/01 03:38:04;;;;;;;2.88;2.78;;;;;;;;;;5179104;22;20023;-83
2023/06/01 03:40:24;;;;;;;3.00;2.83;;;;;;;;;;5179038;22;20047;-83
2023/06/01 03:42:46;;;;;;;2.78;2.78;;;;;;;;;;5187648;22;20026;-83
2023/06/01 03:45:06;;;;;;;2.38;2.38;;;;;;;;;;5187499;22;20023;-83
2023/06/01 03:47:27;;;;;;;3.22;3.03;;;;;;;;;;5178977;22;20057;-83
2023/06/01 03:49:47;;;;;;;4.50;3.30;;;;;;;;;;5179009;22;20239;-83
2023/06/01 03:52:07;;;;;;;3.28;3.08;;;;;;;;;;5201749;22;20065;-83
2023/06/01 03:54:27;;;;;;;3.05;2.92;;;;;;;;;;5201626;22;20045;-83
2023/06/01 03:56:48;;;;;;;3.33;3.13;;;;;;;;;;5187485;22;20061;-83
2023/06/01 03:59:10;;;;;;;2.92;2.83;;;;;;;;;;5201801;22;20058;-83
2023/06/01 04:01:30;;;;;;;3.63;3.50;;;;;;;;;;5178891;22;20361;-83
2023/06/01 04:03:50;;;;;;;4.40;4.10;;;;;;;;;;5178956;22;20027;-83
2023/06/01 04:06:17;;;;;;;2.85;2.83;;;;;;;;;;5201768;22;20023;-83
2023/06/01 04:08:37;;;;;;;3.40;3.20;;;;;;;;;;5187427;22;20023;-83
2023/06/01 04:10:57;;;;;;;4.15;3.00;;;;;;;;;;5201566;22;20022;-83
2023/06/01 04:13:17;;;;;;;4.22;4.03;;;;;;;;;;5201904;22;20022;-83
2023/06/01 04:15:37;;;;;;;3.13;3.03;;;;;;;;;;5201327;22;20050;-83
2023/06/01 04:17:57;;;;;;;3.47;3.38;;;;;;;;;;5201284;22;20030;-83
2023/06/01 04:20:18;;;;;;;3.15;3.05;;;;;;;;;;5209965;22;20305;-83
2023/06/01 04:22:39;;;;;;;3.58;3.47;;;;;;;;;;5178580;22;20078;-83
2023/06/01 04:24:59;;;;;;;3.20;3.10;;;;;;;;;;5187031;22;20030;-83
2023/06/01 04:27:20;;;;;;;2.55;2.47;;;;;;;;;;5178749;22;20046;-83
2023/06/01 04:29:43;;;;;;;3.50;3.40;;;;;;;;;;5178294;22;20353;-83
2023/06/01 04:32:05;;;;;;;3.25;3.15;;;;;;;;;;5210019;22;20026;-83
2023/06/01 04:34:25;;;;;;;2.95;2.70;;;;;;;;;;5210106;22;20125;-83
2023/06/01 04:36:46;;;;;;;3.22;3.22;;;;;;;;;;5178666;22;20065;-83
2023/06/01 04:39:07;;;;;;;2.42;2.33;;;;;;;;;;5209788;22;20061;-83
2023/06/01 04:41:28;;;;;;;3.80;3.60;;;;;;;;;;5186979;22;20030;-83
2023/06/01 04:43:54;;;;;;;3.35;3.13;;;;;;;;;;5179112;22;20062;-83
2023/06/01 04:46:14;;;;;;;3.00;2.95;;;;;;;;;;5178530;22;20055;-83
2023/06/01 04:48:34;;;;;;;3.58;3.47;;;;;;;;;;5209573;22;20266;-83
2023/06/01 04:50:57;;;;;;;3.03;2.92;;;;;;;;;;5187100;22;20067;-83
2023/06/01 04:53:17;;;;;;;4.77;3.37;;;;;;;;;;5178874;22;20050;-83
2023/06/01 04:55:37;;;;;;;3.53;3.42;;;;;;;;;;5209862;22;20214;-83
2023/06/01 04:57:58;;;;;;;3.38;3.30;;;;;;;;;;5178570;22;20027;-83
2023/06/01 05:00:18;;;;;;;4.38;4.00;;;;;;;;;;5209841;22;20027;-83
2023/06/01 05:02:40;;;;;;;2.53;2.47;;;;;;;;;;5186999;22;20057;-83
2023/06/01 05:05:00;;;;;;;4.00;3.70;;;;;;;;;;5178447;22;20026;-84
2023/06/01 05:07:21;;;;;;;3.35;3.25;;;;;;;;;;5201373;22;20080;-84
2023/06/01 05:09:41;;;;;;;3.30;3.10;;;;;;;;;;5187094;22;20022;-84
2023/06/01 05:12:01;;;;;;;2.40;2.30;;;;;;;;;;5209782;22;20066;-84
2023/06/01 05:14:22;;;;;;;3.35;2.95;;;;;;;;;;5178852;22;20045;-84
2023/06/01 05:16:42;;;;;;;2.90;2.80;;;;;;;;;;5178563;22;20384;-84
2023/06/01 05:19:03;;;;;;;3.60;3.50;;;;;;;;;;5201135;22;20021;-84
2023/06/01 05:21:24;;;;;;;3.45;3.25;;;;;;;;;;5186979;22;20067;-84
2023/06/01 05:23:44;;;;;;;3.58;3.47;;;;;;;;;;5201470;22;20050;-84
2023/06/01 05:26:05;;;;;;;3.25;3.15;;;;;;;;;;5178546;22;20062;-84
2023/06/01 05:28:26;;;;;;;2.65;2.65;;;;;;;;;;5201310;22;20033;-84
2023/06/01 05:30:46;;;;;;;2.92;2.83;;;;;;;;;;5201427;22;20249;-84
2023/06/01 05:33:06;;;;;;;2.92;2.80;;;;;;;;;;5187057;22;20035;-84
2023/06/01 05:35:27;;;;;;;2.92;2.83;;;;;;;;;;5187098;22;20023;-84
2023/06/01 05:37:47;;;;;;;3.65;3.42;;;;;;;;;;5201569;22;20027;-84
2023/06/01 05:40:08;;;;;;;2.78;2.58;;;;;;;;;;5178641;22;20027;-84
2023/06/01 05:42:29;;;;;;;3.47;3.38;;;;;;;;;;5178421;22;20023;-84
2023/06/01 05:44:49;;;;;;;3.88;3.67;;;;;;;;;;5187203;22;20027;-84
2023/06/01 05:47:10;;;;;;;2.85;2.75;;;;;;;;;;5178780;22;20023;-84
2023/06/01 05:49:31;;;;;;;3.05;2.75;;;;;;;;;;5178481;22;20034;-84
2023/06/01 05:51:52;;;;;;;3.67;3.38;;;;;;;;;;5178692;22;20026;-84
2023/06/01 05:54:12;;;;;;;3.53;3.42;;;;;;;;;;5187179;22;20391;-84
2023/06/01 05:56:33;;;;;;;2.15;2.15;;;;;;;;;;5178477;22;20051;-84
2023/06/01 05:58:53;;;;;;;3.08;2.92;;;;;;;;;;5201227;22;20035;-84
2023/06/01 06:01:16;;;;;;;4.53;3.28;;;;;;;;;;5187133;22;20023;-84
2023/06/01 06:03:38;;;;;;;3.58;2.33;;;;;;;;;;5201283;22;20023;-84
2023/06/01 06:05:58;;;;;;;2.75;2.60;;;;;;;;;;5201105;22;20083;-84
2023/06/01 06:08:18;;;;;;;2.97;2.78;;;;;;;;;;5178311;22;20358;-84
2023/06/01 06:10:39;;;;;;;3.67;2.92;;;;;;;;;;5178201;22;20042;-84
2023/06/01 06:12:59;;;;;;;2.88;2.88;;;;;;;;;;5200818;22;20022;-84
2023/06/01 06:15:19;;;;;;;2.80;2.70;;;;;;;;;;5201000;22;20026;-84
2023/06/01 06:17:40;;;;;;;2.25;2.13;;;;;;;;;;5178364;22;20023;-84
2023/06/01 06:20:00;;;;;;;2.13;2.13;;;;;;;;;;5178114;22;20043;-84
2023/06/01 06:22:20;;;;;;;3.40;2.47;;;;;;;;;;5178519;22;20354;-84
2023/06/01 06:24:42;;;;;;;1.95;1.92;;;;;;;;;;5186912;22;20349;-84
2023/06/01 06:27:03;;;;;;;3.10;3.03;;;;;;;;;;5200944;22;20054;-84
2023/06/01 06:29:23;;;;;;;2.63;2.45;;;;;;;;;;5178267;22;20078;-85
2023/06/01 06:31:43;;;;;;;3.10;2.22;;;;;;;;;;5178343;22;20110;-84
2023/06/01 06:34:04;;;;;;;1.98;1.98;;;;;;;;;;5178398;22;20023;-85
2023/06/01 06:36:24;;;;;;;2.60;2.40;;;;;;;;;;5200867;22;20214;-85
2023/06/01 06:38:45;;;;;;;2.28;2.08;;;;;;;;;;5178366;22;20023;-84
2023/06/01 06:41:05;;;;;;;5.15;2.40;;;;;;;;;;5178342;22;20023;-84
2023/06/01 06:43:28;;;;;;;1.85;1.75;;;;;;;;;;5187397;22;20026;-84
2023/06/01 06:45:49;;;;;;;1.85;1.85;;;;;;;;;;5186828;22;20039;-84
2023/06/01 06:48:09;;;;;;;2.70;2.60;;;;;;;;;;5186764;22;20054;-85
2023/06/01 06:50:30;;;;;;;1.95;1.90;;;;;;;;;;5178054;22;20058;-85
2023/06/01 06:52:51;;;;;;;1.77;1.77;;;;;;;;;;5177856;22;20085;-85
2023/06/01 06:55:11;;;;;;;1.95;1.95;;;;;;;;;;5186867;22;20034;-85
2023/06/01 06:57:33;;;;;;;2.28;2.17;;;;;;;;;;5186541;22;20091;-85
2023/06/01 06:59:54;;;;;;;1.92;1.77;;;;;;;;;;5178069;22;20023;-85
2023/06/01 07:02:14;;;;;;;1.77;1.77;;;;;;;;;;5209523;22;20035;-85
2023/06/01 07:04:35;;;;;;;1.98;1.88;;;;;;;;;;5178326;22;20063;-85
2023/06/01 07:06:55;;;;;;;2.55;1.55;;;;;;;;;;5186533;22;20035;-85
2023/06/01 07:09:16;;;;;;;1.52;1.40;;;;;;;;;;5200919;22;20030;-85
2023/06/01 07:11:36;;;;;;;3.25;1.52;;;;;;;;;;5209567;22;20062;-85
2023/06/01 07:13:57;;;;;;;1.23;1.23;;;;;;;;;;5177993;22;20071;-85
2023/06/01 07:16:17;;;;;;;1.38;1.38;;;;;;;;;;5200954;22;20064;-85
2023/06/01 07:18:37;;;;;;;1.40;1.40;;;;;;;;;;5178185;22;20031;-85
2023/06/01 07:20:58;;;;;;;1.20;1.20;;;;;;;;;;5200698;22;20050;-85
2023/06/01 07:23:19;;;;;;;1.23;1.20;;;;;;;;;;5200769;22;20026;-85
2023/06/01 07:25:39;;;;;;;1.23;1.20;;;;;;;;;;5178082;22;20074;-85
2023/06/01 07:28:00;;;;;;;1.38;1.20;;;;;;;;;;5186413;22;20062;-85
2023/06/01 07:30:20;;;;;;;1.58;1.10;;;;;;;;;;5186312;22;20023;-85
2023/06/01 07:32:40;;;;;;;1.10;1.10;;;;;;;;;;5178011;22;20378;-85
2023/06/01 07:35:01;;;;;;;1.67;1.58;;;;;;;;;;5186271;22;20267;-85
2023/06/01 07:37:23;;;;;;;1.00;1.00;;;;;;;;;;5177841;22;20027;-85
2023/06/01 07:39:43;;;;;;;1.35;1.10;;;;;;;;;;5200352;22;20022;-85
2023/06/01 07:42:04;;;;;;;1.52;1.00;;;;;;;;;;5177681;22;20104;-86
2023/06/01 07:44:24;;;;;;;1.30;1.08;;;;;;;;;;5177429;22;20027;-86
2023/06/01 07:46:45;;;;;;;1.77;1.20;;;;;;;;;;5177743;22;20023;-86
2023/06/01 07:49:05;;;;;;;1.30;1.20;;;;;;;;;;5177762;22;20342;-86
2023/06/01 07:51:25;;;;;;;1.00;1.00;;;;;;;;;;5177328;22;20078;-86
2023/06/01 07:53:45;;;;;;;1.00;1.00;;;;;;;;;;5177652;22;20480;-85
2023/06/01 07:56:06;;;;;;;1.00;1.00;;;;;;;;;;5200524;22;20030;-86
2023/06/01 07:58:26;;;;;;;1.02;1.02;;;;;;;;;;5200322;22;20099;-86
2023/06/01 08:00:46;;;;;;;1.23;1.00;;;;;;;;;;5208842;22;20026;-86
2023/06/01 08:03:07;;;;;;;1.00;1.00;;;;;;;;;;5200478;22;20062;-86
2023/06/01 08:05:28;;;;;;;0.90;0.90;;;;;;;;;;5178313;22;20110;-86
2023/06/01 08:07:49;;;;;;;1.10;1.10;;;;;;;;;;5201536;22;20074;-86
2023/06/01 08:10:10;;;;;;;1.70;1.00;;;;;;;;;;5178895;22;20263;-86
2023/06/01 08:12:31;;;;;;;0.98;0.98;;;;;;;;;;5187463;22;20266;-86
2023/06/01 08:14:51;;;;;;;1.00;1.00;;;;;;;;;;5178793;22;20046;-85
2023/06/01 08:17:12;;;;;;;1.08;1.08;;;;;;;;;;5201695;22;20026;-86
2023/06/01 08:19:35;;;;;;;1.00;1.00;;;;;;;;;;5201767;22;20054;-86
2023/06/01 08:21:55;;;;;;;0.90;0.90;;;;;;;;;;5201498;22;20222;-86
2023/06/01 08:24:16;;;;;;;1.30;1.00;;;;;;;;;;5178933;22;20035;-86
2023/06/01 08:26:36;;;;;;;1.50;1.10;;;;;;;;;;5178984;22;20362;-86
2023/06/01 08:28:56;;;;;;;1.02;1.02;;;;;;;;;;5201504;22;20349;-86
2023/06/01 08:31:17;;;;;;;0.98;0.98;;;;;;;;;;5187103;22;20082;-86
2023/06/01 08:33:37;;;;;;;1.02;1.02;;;;;;;;;;5179015;22;20091;-86
2023/06/01 08:35:57;;;;;;;1.85;0.90;;;;;;;;;;5201596;22;20073;-86
2023/06/01 08:38:17;;;;;;;0.90;0.90;;;;;;;;;;5201498;22;20034;-86
2023/06/01 08:40:40;;;;;;;0.90;0.90;;;;;;;;;;5210068;22;20215;-86
2023/06/01 08:43:00;;;;;;;;;;;;;;;;;;5187799;22;20022;-86
2023/06/01 08:45:21;;;;;;;0.90;0.90;;;;;;;;;;5178640;22;19918;-86
2023/06/01 08:47:41;;;;;;;0.90;0.90;;;;;;;;;;5201652;22;20038;-86
2023/06/01 08:50:02;;;;;;;1.70;0.90;;;;;;;;;;5187192;22;20026;-86
2023/06/01 08:52:28;;;;;;;1.00;1.00;;;;;;;;;;5178664;22;20027;-86
2023/06/01 08:54:48;;;;;;;1.00;1.00;;;;;;;;;;5209896;22;20022;-86
2023/06/01 08:57:08;;;;;;;1.00;1.00;;;;;;;;;;5178842;22;20027;-86
2023/06/01 08:59:32;;;;;;;0.93;0.93;;;;;;;;;;5178825;22;20050;-85
2023/06/01 09:01:53;;;;;;;0.98;0.90;;;;;;;;;;5178636;22;20051;-86
2023/06/01 09:04:13;;;;;;;1.25;1.25;;;;;;;;;;5201561;22;20030;-86
2023/06/01 09:06:34;;;;;;;0.90;0.90;;;;;;;;;;5201507;22;20095;-86
2023/06/01 09:08:54;;;;;;;0.90;0.90;;;;;;;;;;5187055;22;20023;-86
2023/06/01 09:11:15;;;;;;;0.90;0.90;;;;;;;;;;5187270;22;20027;-86
2023/06/01 09:13:36;;;;;;;1.00;1.00;;;;;;;;;;5201536;22;20042;-86
2023/06/01 09:15:56;;;;;;;1.10;1.00;;;;;;;;;;5178342;22;20035;-86
2023/06/01 09:18:17;;;;;;;0.90;0.90;;;;;;;;;;5178582;22;20050;-86
2023/06/01 09:20:39;;;;;;;0.98;0.98;;;;;;;;;;5178958;22;20254;-86
2023/06/01 09:23:00;;;;;;;0.90;0.90;;;;;;;;;;5178716;22;20069;-86
2023/06/01 09:25:31;;;;;;;0.90;0.90;;;;;;;;;;5201391;22;20085;-86
2023/06/01 09:27:52;;;;;;;0.88;0.88;;;;;;;;;;5187147;22;20027;-86
2023/06/01 09:30:12;;;;;;;1.00;1.00;;;;;;;;;;5178664;22;20115;-86
2023/06/01 09:32:34;;;;;;;2.05;1.00;;;;;;;;;;5178546;22;20026;-86
2023/06/01 09:34:55;;;;;;;1.85;1.77;;;;;;;;;;5178620;22;20023;-86
2023/06/01 09:37:16;;;;;;;1.10;1.10;;;;;;;;;;5178791;22;20023;-86
2023/06/01 09:39:36;;;;;;;1.10;1.00;;;;;;;;;;5187029;22;20365;-86
2023/06/01 09:42:06;;;;;;;1.05;1.00;;;;;;;;;;5186996;22;20022;-86
2023/06/01 09:44:28;;;;;;;0.90;0.90;;;;;;;;;;5178673;22;20027;-86
2023/06/01 09:46:52;;;;;;;1.10;0.75;;;;;;;;;;5209921;22;20330;-86
2023/06/01 09:49:19;;;;;;;0.90;0.90;;;;;;;;;;5187031;22;20148;-86
2023/06/01 09:51:39;;;;;;;0.90;0.90;;;;;;;;;;5201095;22;20026;-86
2023/06/01 09:54:02;;;;;;;1.15;0.80;;;;;;;;;;5201413;22;20106;-86
2023/06/01 09:56:22;;;;;;;1.75;0.90;;;;;;;;;;5187106;22;20066;-86
2023/06/01 09:58:43;;;;;;;0.93;0.93;;;;;;;;;;5178283;22;20047;-86
2023/06/01 10:01:07;;;;;;;0.90;0.90;;;;;;;;;;5178329;22;20022;-87
2023/06/01 10:03:28;;;;;;;0.93;0.93;;;;;;;;;;5186776;22;20063;-86
2023/06/01 10:05:49;;;;;;;0.80;0.80;;;;;;;;;;5186644;22;20086;-86
2023/06/01 10:08:13;;;;;;;0.80;0.80;;;;;;;;;;5178222;22;20358;-87
2023/06/01 10:10:34;;;;;;;1.75;1.00;;;;;;;;;;5186874;22;20092;-87
2023/06/01 10:12:55;;;;;;;1.10;1.00;;;;;;;;;;5186968;22;20061;-86
2023/06/01 10:15:15;;;;;;;0.90;0.90;;;;;;;;;;5186832;22;20023;-86
2023/06/01 10:17:50;;;;;;;1.10;0.90;;;;;;;;;;5209501;22;20071;-86
2023/06/01 10:20:12;;;;;;;0.90;0.90;;;;;;;;;;5186963;22;20068;-87
2023/06/01 10:22:32;;;;;;;0.90;0.90;;;;;;;;;;5186806;22;20083;-87
2023/06/01 10:24:56;;;;;;;0.80;0.80;;;;;;;;;;5178339;22;20329;-87
2023/06/01 10:27:26;;;;;;;1.38;0.98;;;;;;;;;;5177901;22;20035;-86
2023/06/01 10:29:47;;;;;;;0.90;0.90;;;;;;;;;;5178417;22;20342;-87
2023/06/01 10:32:27;;;;;;;0.90;0.90;;;;;;;;;;5178198;22;20140;-87
2023/06/01 10:34:48;;;;;;;1.15;0.90;;;;;;;;;;5195706;22;20023;-87
2023/06/01 10:37:08;;;;;;;1.13;1.00;;;;;;;;;;5201009;22;20383;-86
2023/06/01 10:39:32;;;;;;;1.27;0.85;;;;;;;;;;5201065;22;20030;-86
2023/06/01 10:41:53;;;;;;;0.90;0.90;;;;;;;;;;5178260;22;20078;-86
2023/06/01 10:44:34;;;;;;;1.10;1.10;;;;;;;;;;5178223;22;20097;-86
2023/06/01 10:46:54;;;;;;;1.35;0.80;;;;;;;;;;5200848;22;20333;-86
2023/06/01 10:49:15;;;;;;;0.88;0.88;;;;;;;;;;5186843;22;20670;-86
2023/06/01 10:51:35;;;;;;;0.90;0.90;;;;;;;;;;5200840;22;20079;-87
2023/06/01 10:54:15;;;;;;;0.80;0.80;;;;;;;;;;5200849;22;20031;-87
2023/06/01 10:56:35;;;;;;;0.85;0.80;;;;;;;;;;5186604;22;20026;-87
2023/06/01 10:59:10;;;;;;;0.75;0.75;;;;;;;;;;5200921;22;20038;-87
2023/06/01 11:01:41;;;;;;;0.80;0.80;;;;;;;;;;5187259;22;20069;-88
2023/06/01 11:04:01;;;;;;;1.55;0.77;;;;;;;;;;5186516;22;20385;-87
2023/06/01 11:06:36;;;;;;;0.95;0.95;;;;;;;;;;5186503;22;20023;-86
2023/06/01 11:08:58;;;;;;;1.38;0.70;;;;;;;;;;5186493;22;20027;-87
2023/06/01 11:11:21;;;;;;;0.90;0.90;;;;;;;;;;5209275;22;20162;-86
2023/06/01 11:13:42;;;;;;;1.08;0.80;;;;;;;;;;5186651;22;20051;-87
2023/06/01 11:16:21;;;;;;;0.70;0.70;;;;;;;;;;5186427;22;20490;-86
2023/06/01 11:18:41;;;;;;;0.80;0.80;;;;;;;;;;5178003;22;20031;-87
2023/06/01 11:21:02;;;;;;;0.80;0.80;;;;;;;;;;5178194;22;20055;-87
2023/06/01 11:23:23;;;;;;;0.70;0.70;;;;;;;;;;5178000;22;20027;-87
2023/06/01 11:25:43;;;;;;;0.70;0.70;;;;;;;;;;5186411;22;20023;-87
2023/06/01 11:28:04;;;;;;;1.02;0.75;;;;;;;;;;5186519;22;20027;-87
2023/06/01 11:30:25;;;;;;;0.82;0.80;;;;;;;;;;5177938;22;20370;-87
2023/06/01 11:32:48;;;;;;;0.77;0.77;;;;;;;;;;5200618;22;20121;-87
2023/06/01 11:35:20;;;;;;;0.80;0.80;;;;;;;;;;5209170;22;20206;-86
2023/06/01 11:37:41;;;;;;;0.80;0.80;;;;;;;;;;5177971;22;20210;-87
2023/06/01 11:40:10;;;;;;;0.70;0.70;;;;;;;;;;5201412;22;20094;-87
2023/06/01 11:42:36;;;;;;;0.70;0.70;;;;;;;;;;5187511;22;20035;-89
2023/06/01 11:44:59;;;;;;;0.85;0.80;;;;;;;;;;5201785;22;20069;-89
2023/06/01 11:47:20;;;;;;;0.80;0.80;;;;;;;;;;5179095;22;20043;-89
2023/06/01 11:49:44;;;;;;;1.13;0.70;;;;;;;;;;5201826;22;20023;-89
2023/06/01 11:52:08;;;;;;;0.70;0.70;;;;;;;;;;5201753;22;20058;-89
2023/06/01 11:54:29;;;;;;;0.70;0.70;;;;;;;;;;5201757;22;20342;-89
2023/06/01 11:56:49;;;;;;;0.70;0.70;;;;;;;;;;5187555;22;20122;-89
2023/06/01 11:59:11;;;;;;;0.70;0.70;;;;;;;;;;5179152;22;20354;-89
2023/06/01 12:01:31;;;;;;;0.75;0.75;;;;;;;;;;5210245;22;20286;-89
2023/06/01 12:03:51;;;;;;;0.70;0.70;;;;;;;;;;5210268;22;20053;-89
2023/06/01 12:06:22;;;;;;;0.68;0.68;;;;;;;;;;5210358;22;20085;-89
2023/06/01 12:08:43;;;;;;;1.02;0.70;;;;;;;;;;5201648;22;20211;-89
2023/06/01 12:11:03;;;;;;;0.82;0.80;;;;;;;;;;5178779;22;20034;-89
2023/06/01 12:13:24;;;;;;;1.20;1.17;;;;;;;;;;5179060;22;20242;-89
2023/06/01 12:15:45;;;;;;;3.70;0.80;;;;;;;;;;5178883;22;20080;-89
2023/06/01 12:18:05;;;;;;;0.93;0.70;;;;;;;;;;5201620;22;20030;-90
2023/06/01 12:20:27;;;;;;;1.25;0.70;;;;;;;;;;5201756;22;20038;-89
2023/06/01 12:22:47;;;;;;;1.23;0.70;;;;;;;;;;5201770;22;20093;-89
2023/06/01 12:25:10;;;;;;;0.80;0.80;;;;;;;;;;5210112;22;20130;-89
2023/06/01 12:27:32;;;;;;;1.48;0.80;;;;;;;;;;5201672;22;20073;-89
2023/06/01 12:29:52;;;;;;;1.80;0.70;;;;;;;;;;5179051;22;20023;-89
2023/06/01 12:32:15;;;;;;;1.67;0.90;;;;;;;;;;5178768;22;20087;-89
2023/06/01 12:34:36;;;;;;;0.70;0.70;;;;;;;;;;5201326;22;20022;-89
2023/06/01 12:36:56;;;;;;;0.80;0.80;;;;;;;;;;5201309;22;20035;-88
2023/06/01 12:39:35;;;;;;;1.77;0.70;;;;;;;;;;5201329;22;20031;-89
2023/06/01 12:41:56;;;;;;;0.90;0.63;;;;;;;;;;5201328;22;20334;-89
2023/06/01 12:44:20;;;;;;;2.28;0.80;;;;;;;;;;5201430;22;20050;-90
2023/06/01 12:46:41;;;;;;;4.43;0.88;;;;;;;;;;5178865;22;20058;-90
2023/06/01 12:49:18;;;;;;;1.05;0.75;;;;;;;;;;5201587;22;20078;-90
2023/06/01 12:51:39;;;;;;;2.05;0.80;;;;;;;;;;5200939;22;20034;-91
2023/06/01 12:53:59;;;;;;;4.05;1.27;;;;;;;;;;5178685;22;20031;-88
2023/06/01 12:56:19;;;;;;;2.55;1.00;;;;;;;;;;5201495;22;20041;-87
2023/06/01 12:58:40;;;;;;;2.13;1.00;;;;;;;;;;5201502;22;20073;-85
2023/06/01 13:01:02;;;;;;;3.85;1.70;;;;;;;;;;5178754;22;20035;-87
2023/06/01 13:03:22;;;;;;;3.05;1.20;;;;;;;;;;5201422;22;20026;-87
2023/06/01 13:05:46;;;;;;;1.77;1.40;;;;;;;;;;5201568;22;20022;-86
2023/06/01 13:08:06;;;;;;;1.30;1.20;;;;;;;;;;5201381;22;20083;-86
2023/06/01 13:10:27;;;;;;;1.83;1.30;;;;;;;;;;5201399;22;20114;-87
2023/06/01 13:12:47;;;;;;;1.38;1.38;;;;;;;;;;5201556;22;20026;-86
2023/06/01 13:15:08;;;;;;;1.70;1.60;;;;;;;;;;5201380;22;20030;-88
2023/06/01 13:17:29;;;;;;;1.70;1.35;;;;;;;;;;5187081;22;20026;-87
2023/06/01 13:19:49;;;;;;;1.75;1.38;;;;;;;;;;5201460;22;20247;-87
2023/06/01 13:22:09;;;;;;;2.10;1.55;;;;;;;;;;5201388;22;20030;-87
2023/06/01 13:24:30;;;;;;;1.95;1.85;;;;;;;;;;5178593;22;20083;-87
2023/06/01 13:27:05;;;;;;;1.52;1.30;;;;;;;;;;5181653;22;20023;-87
2023/06/01 13:29:25;;;;;;;9.48;1.88;;;;;;;;;;5178807;22;20043;-85
2023/06/01 13:31:46;;;;;;;1.40;1.30;;;;;;;;;;5201208;22;20107;-87
2023/06/01 13:34:07;;;;;;;2.20;1.10;;;;;;;;;;5178709;22;20031;-86
2023/06/01 13:36:27;;;;;;;5.95;2.47;;;;;;;;;;5201489;22;20058;-87
2023/06/01 13:38:47;;;;;;;1.95;1.15;;;;;;;;;;5178636;22;20263;-86
2023/06/01 13:41:07;;;;;;;3.70;1.20;;;;;;;;;;5201114;22;20022;-86
2023/06/01 13:43:28;;;;;;;1.10;1.10;;;;;;;;;;5201361;22;20078;-87
2023/06/01 13:45:48;;;;;;;3.00;1.55;;;;;;;;;;5201363;22;20284;-86
2023/06/01 13:48:10;;;;;;;1.67;1.58;;;;;;;;;;5178428;22;20027;-86
2023/06/01 13:50:33;;;;;;;2.60;1.75;;;;;;;;;;5201320;22;20058;-86
2023/06/01 13:52:53;;;;;;;17.13;2.03;;;;;;;;;;5201397;22;20026;-86
2023/06/01 13:55:14;;;;;;;3.38;1.88;;;;;;;;;;5209736;22;20023;-86
2023/06/01 13:57:35;;;;;;;1.77;1.70;;;;;;;;;;5201244;22;20027;-86
2023/06/01 13:59:55;;;;;;;1.58;1.58;;;;;;;;;;5201412;22;20223;-86
2023/06/01 14:02:15;;;;;;;3.15;1.90;;;;;;;;;;5209770;22;20038;-86
2023/06/01 14:04:36;;;;;;;3.25;1.95;;;;;;;;;;5209709;22;20371;-87
2023/06/01 14:06:57;;;;;;;5.07;1.98;;;;;;;;;;5201311;22;20031;-87
2023/06/01 14:09:17;;;;;;;2.00;2.00;;;;;;;;;;5178509;22;20141;-86
2023/06/01 14:11:37;;;;;;;2.13;2.05;;;;;;;;;;5200981;22;20027;-87
2023/06/01 14:13:57;;;;;;;2.55;1.70;;;;;;;;;;5201300;22;20026;-87
2023/06/01 14:16:18;;;;;;;2.28;2.10;;;;;;;;;;5201349;22;20364;-87
2023/06/01 14:18:38;;;;;;;2.58;1.65;;;;;;;;;;5201071;22;20091;-87
2023/06/01 14:20:59;;;;;;;3.30;2.15;;;;;;;;;;5201246;22;20372;-87
2023/06/01 14:23:20;;;;;;;6.38;1.75;;;;;;;;;;5201372;22;20337;-87
2023/06/01 14:25:40;;;;;;;3.40;2.20;;;;;;;;;;5178414;22;20023;-87
2023/06/01 14:28:01;;;;;;;4.85;2.10;;;;;;;;;;5178171;22;20027;-87
2023/06/01 14:30:21;;;;;;;2.17;2.05;;;;;;;;;;5201089;22;20077;-87
2023/06/01 14:32:41;;;;;;;3.08;1.52;;;;;;;;;;5201106;22;20035;-88
2023/06/01 14:35:01;;;;;;;5.22;1.42;;;;;;;;;;5178270;22;20031;-87
2023/06/01 14:37:22;;;;;;;1.80;1.65;;;;;;;;;;5201262;22;20034;-88
2023/06/01 14:39:42;;;;;;;1.65;1.55;;;;;;;;;;5201012;22;20047;-88
2023/06/01 14:42:02;;;;;;;4.53;1.63;;;;;;;;;;5178239;22;20022;-87
2023/06/01 14:44:23;;;;;;;2.78;2.40;;;;;;;;;;5201004;22;20098;-88
2023/06/01 14:46:43;;;;;;;1.50;1.50;;;;;;;;;;5201051;22;20066;-88
2023/06/01 14:49:04;;;;;;;1.17;1.13;;;;;;;;;;5209425;22;20061;-87
2023/06/01 14:51:24;;;;;;;2.15;2.05;;;;;;;;;;5200934;22;20106;-86
2023/06/01 14:53:45;;;;;;;1.50;1.50;;;;;;;;;;5178431;22;20026;-86
2023/06/01 14:56:06;;;;;;;1.30;1.30;;;;;;;;;;5200854;22;20022;-89
2023/06/01 14:58:27;;;;;;;2.88;1.83;;;;;;;;;;5178391;22;20050;-89
2023/06/01 15:00:48;;;;;;;1.90;1.77;;;;;;;;;;5201054;22;20072;-89
2023/06/01 15:03:08;;;;;;;1.80;1.75;;;;;;;;;;5178223;22;20038;-90
2023/06/01 15:05:29;;;;;;;3.40;1.85;;;;;;;;;;5200897;22;20027;-89
2023/06/01 15:07:49;;;;;;;1.98;1.83;;;;;;;;;;5178292;22;20024;-90
2023/06/01 15:10:10;;;;;;;2.40;2.17;;;;;;;;;;5186599;22;20023;-91
2023/06/01 15:12:30;;;;;;;2.00;1.90;;;;;;;;;;5200697;22;20027;-92
2023/06/01 15:14:51;;;;;;;2.90;1.85;;;;;;;;;;5187487;22;20026;-90
2023/06/01 15:17:11;;;;;;;2.05;1.95;;;;;;;;;;5179312;22;20027;-92